sensor_id;sensor_type;location;lat;lon;timestamp;P1;durP1;ratioP1;P2;durP2;ratioP2
37971;SDS011;23794;48.234;8.344;2024-03-02T00:01:15;6.38;;;3.53;;
37971;SDS011;23794;48.234;8.344;2024-03-02T00:03:42;6.30;;;3.83;;
37971;SDS011;23794;48.234;8.344;2024-03-02T00:06:10;6.72;;;4.18;;
37971;SDS011;23794;48.234;8.344;2024-03-02T00:08:37;7.90;;;4.25;;
37971;SDS011;23794;48.234;8.344;2024-03-02T00:11:03;6.72;;;4.78;;
37971;SDS011;23794;48.234;8.344;2024-03-02T00:13:30;6.88;;;3.80;;
37971;SDS011;23794;48.234;8.344;2024-03-02T00:15:58;5.43;;;3.75;;
37971;SDS011;23794;48.234;8.344;2024-03-02T00:18:26;5.93;;;3.60;;
37971;SDS011;23794;48.234;8.344;2024-03-02T00:20:56;5.07;;;3.65;;
37971;SDS011;23794;48.234;8.344;2024-03-02T00:23:24;4.03;;;2.90;;
37971;SDS011;23794;48.234;8.344;2024-03-02T00:25:55;6.18;;;3.45;;
37971;SDS011;23794;48.234;8.344;2024-03-02T00:28:23;5.30;;;3.33;;
37971;SDS011;23794;48.234;8.344;2024-03-02T00:30:58;5.78;;;3.40;;
37971;SDS011;23794;48.234;8.344;2024-03-02T00:33:34;8.15;;;4.38;;
37971;SDS011;23794;48.234;8.344;2024-03-02T00:36:03;6.43;;;4.18;;
37971;SDS011;23794;48.234;8.344;2024-03-02T00:38:31;12.95;;;8.50;;
37971;SDS011;23794;48.234;8.344;2024-03-02T00:40:59;14.93;;;9.30;;
37971;SDS011;23794;48.234;8.344;2024-03-02T00:46:15;8.40;;;5.05;;
37971;SDS011;23794;48.234;8.344;2024-03-02T00:49:00;8.75;;;5.72;;
37971;SDS011;23794;48.234;8.344;2024-03-02T00:51:32;7.55;;;5.25;;
37971;SDS011;23794;48.234;8.344;2024-03-02T00:54:01;6.78;;;4.28;;
37971;SDS011;23794;48.234;8.344;2024-03-02T00:56:31;7.53;;;4.53;;
37971;SDS011;23794;48.234;8.344;2024-03-02T00:58:58;7.75;;;4.55;;
37971;SDS011;23794;48.234;8.344;2024-03-02T01:01:25;8.88;;;4.60;;
37971;SDS011;23794;48.234;8.344;2024-03-02T01:03:51;6.43;;;3.65;;
37971;SDS011;23794;48.234;8.344;2024-03-02T01:06:19;7.35;;;4.03;;
37971;SDS011;23794;48.234;8.344;2024-03-02T01:08:46;6.57;;;4.20;;
37971;SDS011;23794;48.234;8.344;2024-03-02T01:11:17;6.73;;;4.33;;
37971;SDS011;23794;48.234;8.344;2024-03-02T01:13:45;6.07;;;4.38;;
37971;SDS011;23794;48.234;8.344;2024-03-02T01:16:12;5.10;;;3.13;;
37971;SDS011;23794;48.234;8.344;2024-03-02T01:18:39;4.95;;;3.38;;
37971;SDS011;23794;48.234;8.344;2024-03-02T01:21:06;4.65;;;3.25;;
37971;SDS011;23794;48.234;8.344;2024-03-02T01:23:33;5.28;;;3.80;;
37971;SDS011;23794;48.234;8.344;2024-03-02T01:26:00;5.20;;;3.35;;
37971;SDS011;23794;48.234;8.344;2024-03-02T01:28:26;5.90;;;3.80;;
37971;SDS011;23794;48.234;8.344;2024-03-02T01:30:54;5.60;;;3.42;;
37971;SDS011;23794;48.234;8.344;2024-03-02T01:33:20;4.25;;;3.20;;
37971;SDS011;23794;48.234;8.344;2024-03-02T01:35:47;4.57;;;3.13;;
37971;SDS011;23794;48.234;8.344;2024-03-02T01:38:14;5.60;;;3.00;;
37971;SDS011;23794;48.234;8.344;2024-03-02T01:40:40;4.03;;;2.63;;
37971;SDS011;23794;48.234;8.344;2024-03-02T01:43:09;5.78;;;3.80;;
37971;SDS011;23794;48.234;8.344;2024-03-02T01:45:35;5.63;;;3.30;;
37971;SDS011;23794;48.234;8.344;2024-03-02T01:48:04;3.90;;;2.65;;
37971;SDS011;23794;48.234;8.344;2024-03-02T01:50:33;4.60;;;2.97;;
37971;SDS011;23794;48.234;8.344;2024-03-02T01:53:00;4.60;;;2.72;;
37971;SDS011;23794;48.234;8.344;2024-03-02T01:55:29;3.72;;;2.42;;
37971;SDS011;23794;48.234;8.344;2024-03-02T01:57:57;4.85;;;3.05;;
37971;SDS011;23794;48.234;8.344;2024-03-02T02:00:24;4.40;;;3.33;;
37971;SDS011;23794;48.234;8.344;2024-03-02T02:02:53;4.70;;;2.85;;
37971;SDS011;23794;48.234;8.344;2024-03-02T02:05:20;5.45;;;3.13;;
37971;SDS011;23794;48.234;8.344;2024-03-02T02:07:47;5.90;;;3.10;;
37971;SDS011;23794;48.234;8.344;2024-03-02T02:10:14;4.40;;;3.00;;
37971;SDS011;23794;48.234;8.344;2024-03-02T02:12:41;3.63;;;2.70;;
37971;SDS011;23794;48.234;8.344;2024-03-02T02:17:56;4.88;;;2.50;;
37971;SDS011;23794;48.234;8.344;2024-03-02T02:20:24;3.90;;;2.53;;
37971;SDS011;23794;48.234;8.344;2024-03-02T02:25:21;5.50;;;3.10;;
37971;SDS011;23794;48.234;8.344;2024-03-02T02:27:48;4.97;;;2.58;;
37971;SDS011;23794;48.234;8.344;2024-03-02T02:30:18;3.47;;;2.30;;
37971;SDS011;23794;48.234;8.344;2024-03-02T02:32:46;3.00;;;2.22;;
37971;SDS011;23794;48.234;8.344;2024-03-02T02:35:12;4.25;;;2.50;;
37971;SDS011;23794;48.234;8.344;2024-03-02T02:37:40;3.95;;;2.47;;
37971;SDS011;23794;48.234;8.344;2024-03-02T02:40:07;4.45;;;2.47;;
37971;SDS011;23794;48.234;8.344;2024-03-02T02:42:35;2.65;;;1.83;;
37971;SDS011;23794;48.234;8.344;2024-03-02T02:45:01;3.90;;;2.45;;
37971;SDS011;23794;48.234;8.344;2024-03-02T02:47:28;3.85;;;2.47;;
37971;SDS011;23794;48.234;8.344;2024-03-02T02:49:56;4.40;;;2.90;;
37971;SDS011;23794;48.234;8.344;2024-03-02T02:52:23;5.13;;;3.03;;
37971;SDS011;23794;48.234;8.344;2024-03-02T02:54:50;2.42;;;1.35;;
37971;SDS011;23794;48.234;8.344;2024-03-02T02:57:17;3.65;;;2.33;;
37971;SDS011;23794;48.234;8.344;2024-03-02T02:59:44;6.43;;;4.03;;
37971;SDS011;23794;48.234;8.344;2024-03-02T03:02:10;5.90;;;2.13;;
37971;SDS011;23794;48.234;8.344;2024-03-02T03:04:39;3.63;;;2.28;;
37971;SDS011;23794;48.234;8.344;2024-03-02T03:07:06;3.33;;;2.10;;
37971;SDS011;23794;48.234;8.344;2024-03-02T03:09:33;4.45;;;2.28;;
37971;SDS011;23794;48.234;8.344;2024-03-02T03:11:59;4.22;;;2.00;;
37971;SDS011;23794;48.234;8.344;2024-03-02T03:14:26;4.30;;;2.33;;
37971;SDS011;23794;48.234;8.344;2024-03-02T03:16:53;3.83;;;2.13;;
37971;SDS011;23794;48.234;8.344;2024-03-02T03:19:19;4.32;;;2.60;;
37971;SDS011;23794;48.234;8.344;2024-03-02T03:21:46;3.92;;;2.00;;
37971;SDS011;23794;48.234;8.344;2024-03-02T03:24:12;3.70;;;1.65;;
37971;SDS011;23794;48.234;8.344;2024-03-02T03:26:39;3.70;;;1.90;;
37971;SDS011;23794;48.234;8.344;2024-03-02T03:29:06;2.38;;;1.48;;
37971;SDS011;23794;48.234;8.344;2024-03-02T03:31:32;3.15;;;1.60;;
37971;SDS011;23794;48.234;8.344;2024-03-02T03:33:59;3.42;;;1.60;;
37971;SDS011;23794;48.234;8.344;2024-03-02T03:36:26;3.50;;;2.20;;
37971;SDS011;23794;48.234;8.344;2024-03-02T03:38:52;4.07;;;2.03;;
37971;SDS011;23794;48.234;8.344;2024-03-02T03:41:19;3.58;;;2.08;;
37971;SDS011;23794;48.234;8.344;2024-03-02T03:43:45;3.08;;;2.22;;
37971;SDS011;23794;48.234;8.344;2024-03-02T03:46:12;3.97;;;1.63;;
37971;SDS011;23794;48.234;8.344;2024-03-02T03:48:39;2.20;;;1.60;;
37971;SDS011;23794;48.234;8.344;2024-03-02T03:51:05;3.13;;;1.52;;
37971;SDS011;23794;48.234;8.344;2024-03-02T03:53:32;3.25;;;1.67;;
37971;SDS011;23794;48.234;8.344;2024-03-02T03:55:58;2.78;;;1.45;;
37971;SDS011;23794;48.234;8.344;2024-03-02T03:58:25;2.60;;;1.52;;
37971;SDS011;23794;48.234;8.344;2024-03-02T04:00:52;2.67;;;1.60;;
37971;SDS011;23794;48.234;8.344;2024-03-02T04:03:18;3.40;;;1.75;;
37971;SDS011;23794;48.234;8.344;2024-03-02T04:05:45;2.83;;;1.60;;
37971;SDS011;23794;48.234;8.344;2024-03-02T04:08:12;2.42;;;1.42;;
37971;SDS011;23794;48.234;8.344;2024-03-02T04:10:38;2.58;;;1.75;;
37971;SDS011;23794;48.234;8.344;2024-03-02T04:13:06;5.10;;;2.72;;
37971;SDS011;23794;48.234;8.344;2024-03-02T04:15:33;5.22;;;1.73;;
37971;SDS011;23794;48.234;8.344;2024-03-02T04:18:00;2.72;;;1.83;;
37971;SDS011;23794;48.234;8.344;2024-03-02T04:20:26;3.55;;;1.80;;
37971;SDS011;23794;48.234;8.344;2024-03-02T04:22:53;4.82;;;2.30;;
37971;SDS011;23794;48.234;8.344;2024-03-02T04:25:20;3.63;;;1.85;;
37971;SDS011;23794;48.234;8.344;2024-03-02T04:27:46;5.85;;;1.90;;
37971;SDS011;23794;48.234;8.344;2024-03-02T04:30:13;4.68;;;2.03;;
37971;SDS011;23794;48.234;8.344;2024-03-02T04:32:40;3.33;;;2.25;;
37971;SDS011;23794;48.234;8.344;2024-03-02T04:35:06;3.67;;;1.75;;
37971;SDS011;23794;48.234;8.344;2024-03-02T04:37:36;5.07;;;2.10;;
37971;SDS011;23794;48.234;8.344;2024-03-02T04:40:03;4.25;;;2.10;;
37971;SDS011;23794;48.234;8.344;2024-03-02T04:42:29;3.58;;;2.30;;
37971;SDS011;23794;48.234;8.344;2024-03-02T04:44:56;2.92;;;1.60;;
37971;SDS011;23794;48.234;8.344;2024-03-02T04:47:23;5.72;;;2.05;;
37971;SDS011;23794;48.234;8.344;2024-03-02T04:49:49;2.38;;;1.17;;
37971;SDS011;23794;48.234;8.344;2024-03-02T04:52:16;2.88;;;1.50;;
37971;SDS011;23794;48.234;8.344;2024-03-02T04:54:43;4.35;;;1.85;;
37971;SDS011;23794;48.234;8.344;2024-03-02T04:57:28;3.22;;;1.70;;
37971;SDS011;23794;48.234;8.344;2024-03-02T04:59:55;3.60;;;1.83;;
37971;SDS011;23794;48.234;8.344;2024-03-02T05:02:21;2.78;;;1.55;;
37971;SDS011;23794;48.234;8.344;2024-03-02T05:04:48;5.03;;;1.70;;
37971;SDS011;23794;48.234;8.344;2024-03-02T05:07:14;6.60;;;1.70;;
37971;SDS011;23794;48.234;8.344;2024-03-02T05:09:41;4.80;;;1.58;;
37971;SDS011;23794;48.234;8.344;2024-03-02T05:12:08;3.13;;;1.40;;
37971;SDS011;23794;48.234;8.344;2024-03-02T05:14:49;2.50;;;1.50;;
37971;SDS011;23794;48.234;8.344;2024-03-02T05:17:16;6.00;;;1.30;;
37971;SDS011;23794;48.234;8.344;2024-03-02T05:19:42;4.65;;;1.70;;
37971;SDS011;23794;48.234;8.344;2024-03-02T05:22:09;3.63;;;1.98;;
37971;SDS011;23794;48.234;8.344;2024-03-02T05:24:35;3.22;;;1.40;;
37971;SDS011;23794;48.234;8.344;2024-03-02T05:27:03;3.40;;;1.58;;
37971;SDS011;23794;48.234;8.344;2024-03-02T05:29:30;2.85;;;1.45;;
37971;SDS011;23794;48.234;8.344;2024-03-02T05:31:56;2.70;;;1.10;;
37971;SDS011;23794;48.234;8.344;2024-03-02T05:34:23;2.75;;;1.40;;
37971;SDS011;23794;48.234;8.344;2024-03-02T05:36:50;2.25;;;1.52;;
37971;SDS011;23794;48.234;8.344;2024-03-02T05:39:16;2.00;;;1.40;;
37971;SDS011;23794;48.234;8.344;2024-03-02T05:41:43;2.13;;;1.25;;
37971;SDS011;23794;48.234;8.344;2024-03-02T05:44:09;2.92;;;1.55;;
37971;SDS011;23794;48.234;8.344;2024-03-02T05:46:36;3.17;;;1.10;;
37971;SDS011;23794;48.234;8.344;2024-03-02T05:49:05;4.43;;;1.50;;
37971;SDS011;23794;48.234;8.344;2024-03-02T05:51:34;2.47;;;1.30;;
37971;SDS011;23794;48.234;8.344;2024-03-02T05:54:00;2.67;;;1.45;;
37971;SDS011;23794;48.234;8.344;2024-03-02T05:56:27;3.45;;;1.50;;
37971;SDS011;23794;48.234;8.344;2024-03-02T05:58:54;2.92;;;1.60;;
37971;SDS011;23794;48.234;8.344;2024-03-02T06:01:39;2.97;;;1.38;;
37971;SDS011;23794;48.234;8.344;2024-03-02T06:04:07;2.67;;;1.80;;
37971;SDS011;23794;48.234;8.344;2024-03-02T06:06:33;3.28;;;2.00;;
37971;SDS011;23794;48.234;8.344;2024-03-02T06:09:01;3.08;;;1.75;;
37971;SDS011;23794;48.234;8.344;2024-03-02T06:11:28;2.50;;;1.38;;
37971;SDS011;23794;48.234;8.344;2024-03-02T06:13:55;2.17;;;1.20;;
37971;SDS011;23794;48.234;8.344;2024-03-02T06:16:22;2.38;;;1.52;;
37971;SDS011;23794;48.234;8.344;2024-03-02T06:18:49;2.80;;;1.73;;
37971;SDS011;23794;48.234;8.344;2024-03-02T06:21:15;6.05;;;2.63;;
37971;SDS011;23794;48.234;8.344;2024-03-02T06:23:42;2.60;;;1.58;;
37971;SDS011;23794;48.234;8.344;2024-03-02T06:26:09;4.15;;;1.73;;
37971;SDS011;23794;48.234;8.344;2024-03-02T06:28:36;1.98;;;1.20;;
37971;SDS011;23794;48.234;8.344;2024-03-02T06:31:02;3.28;;;1.77;;
37971;SDS011;23794;48.234;8.344;2024-03-02T06:33:29;4.70;;;1.58;;
37971;SDS011;23794;48.234;8.344;2024-03-02T06:35:56;2.72;;;1.50;;
37971;SDS011;23794;48.234;8.344;2024-03-02T06:38:22;2.88;;;1.67;;
37971;SDS011;23794;48.234;8.344;2024-03-02T06:40:49;2.30;;;1.50;;
37971;SDS011;23794;48.234;8.344;2024-03-02T06:43:15;3.13;;;1.48;;
37971;SDS011;23794;48.234;8.344;2024-03-02T06:45:42;4.80;;;1.70;;
37971;SDS011;23794;48.234;8.344;2024-03-02T06:48:09;2.60;;;1.75;;
37971;SDS011;23794;48.234;8.344;2024-03-02T06:50:35;1.45;;;1.20;;
37971;SDS011;23794;48.234;8.344;2024-03-02T06:53:02;2.75;;;2.13;;
37971;SDS011;23794;48.234;8.344;2024-03-02T06:55:30;3.83;;;1.70;;
37971;SDS011;23794;48.234;8.344;2024-03-02T06:57:57;3.58;;;1.52;;
37971;SDS011;23794;48.234;8.344;2024-03-02T07:00:23;5.32;;;1.83;;
37971;SDS011;23794;48.234;8.344;2024-03-02T07:02:50;3.85;;;1.80;;
37971;SDS011;23794;48.234;8.344;2024-03-02T07:05:17;2.58;;;1.58;;
37971;SDS011;23794;48.234;8.344;2024-03-02T07:07:43;2.58;;;1.67;;
37971;SDS011;23794;48.234;8.344;2024-03-02T07:10:10;3.10;;;1.83;;
37971;SDS011;23794;48.234;8.344;2024-03-02T07:12:37;3.35;;;1.98;;
37971;SDS011;23794;48.234;8.344;2024-03-02T07:15:04;8.55;;;4.75;;
37971;SDS011;23794;48.234;8.344;2024-03-02T07:17:31;12.60;;;7.43;;
37971;SDS011;23794;48.234;8.344;2024-03-02T07:19:58;8.85;;;5.88;;
37971;SDS011;23794;48.234;8.344;2024-03-02T07:22:25;10.18;;;5.95;;
37971;SDS011;23794;48.234;8.344;2024-03-02T07:24:51;9.20;;;5.30;;
37971;SDS011;23794;48.234;8.344;2024-03-02T07:27:18;9.23;;;5.35;;
37971;SDS011;23794;48.234;8.344;2024-03-02T07:29:45;8.10;;;3.97;;
37971;SDS011;23794;48.234;8.344;2024-03-02T07:32:12;9.75;;;4.35;;
37971;SDS011;23794;48.234;8.344;2024-03-02T07:34:38;4.22;;;2.90;;
37971;SDS011;23794;48.234;8.344;2024-03-02T07:37:05;5.35;;;2.85;;
37971;SDS011;23794;48.234;8.344;2024-03-02T07:39:32;4.18;;;2.60;;
37971;SDS011;23794;48.234;8.344;2024-03-02T07:41:59;4.68;;;3.00;;
37971;SDS011;23794;48.234;8.344;2024-03-02T07:44:26;6.50;;;3.80;;
37971;SDS011;23794;48.234;8.344;2024-03-02T07:46:53;4.82;;;3.15;;
37971;SDS011;23794;48.234;8.344;2024-03-02T07:49:20;6.05;;;4.15;;
37971;SDS011;23794;48.234;8.344;2024-03-02T07:51:46;4.38;;;2.70;;
37971;SDS011;23794;48.234;8.344;2024-03-02T07:54:13;4.15;;;2.50;;
37971;SDS011;23794;48.234;8.344;2024-03-02T07:56:40;6.60;;;4.38;;
37971;SDS011;23794;48.234;8.344;2024-03-02T07:59:07;6.72;;;4.47;;
37971;SDS011;23794;48.234;8.344;2024-03-02T08:01:33;6.50;;;4.13;;
37971;SDS011;23794;48.234;8.344;2024-03-02T08:04:01;5.47;;;4.22;;
37971;SDS011;23794;48.234;8.344;2024-03-02T08:06:29;4.90;;;4.03;;
37971;SDS011;23794;48.234;8.344;2024-03-02T08:08:57;5.80;;;4.30;;
37971;SDS011;23794;48.234;8.344;2024-03-02T08:11:24;6.40;;;4.28;;
37971;SDS011;23794;48.234;8.344;2024-03-02T08:13:51;6.15;;;4.35;;
37971;SDS011;23794;48.234;8.344;2024-03-02T08:16:18;6.45;;;4.68;;
37971;SDS011;23794;48.234;8.344;2024-03-02T08:18:49;6.57;;;4.85;;
37971;SDS011;23794;48.234;8.344;2024-03-02T08:21:16;5.07;;;3.63;;
37971;SDS011;23794;48.234;8.344;2024-03-02T08:23:43;5.45;;;4.00;;
37971;SDS011;23794;48.234;8.344;2024-03-02T08:26:10;6.00;;;3.92;;
37971;SDS011;23794;48.234;8.344;2024-03-02T08:28:38;5.10;;;3.70;;
37971;SDS011;23794;48.234;8.344;2024-03-02T08:31:06;5.85;;;4.10;;
37971;SDS011;23794;48.234;8.344;2024-03-02T08:33:34;4.60;;;3.22;;
37971;SDS011;23794;48.234;8.344;2024-03-02T08:36:04;4.18;;;3.47;;
37971;SDS011;23794;48.234;8.344;2024-03-02T08:38:31;5.90;;;4.07;;
37971;SDS011;23794;48.234;8.344;2024-03-02T08:40:58;5.05;;;3.45;;
37971;SDS011;23794;48.234;8.344;2024-03-02T08:43:24;4.55;;;3.33;;
37971;SDS011;23794;48.234;8.344;2024-03-02T08:45:51;4.47;;;3.17;;
37971;SDS011;23794;48.234;8.344;2024-03-02T08:48:18;5.07;;;3.60;;
37971;SDS011;23794;48.234;8.344;2024-03-02T08:50:46;5.07;;;3.10;;
37971;SDS011;23794;48.234;8.344;2024-03-02T08:53:12;5.30;;;3.65;;
37971;SDS011;23794;48.234;8.344;2024-03-02T08:55:39;5.45;;;3.42;;
37971;SDS011;23794;48.234;8.344;2024-03-02T08:58:06;5.00;;;3.65;;
37971;SDS011;23794;48.234;8.344;2024-03-02T09:00:33;6.07;;;3.83;;
37971;SDS011;23794;48.234;8.344;2024-03-02T09:03:00;5.65;;;3.72;;
37971;SDS011;23794;48.234;8.344;2024-03-02T09:05:26;3.65;;;2.97;;
37971;SDS011;23794;48.234;8.344;2024-03-02T09:07:53;4.95;;;3.55;;
37971;SDS011;23794;48.234;8.344;2024-03-02T09:10:19;4.90;;;3.47;;
37971;SDS011;23794;48.234;8.344;2024-03-02T09:12:46;5.97;;;3.70;;
37971;SDS011;23794;48.234;8.344;2024-03-02T09:15:15;4.60;;;3.15;;
37971;SDS011;23794;48.234;8.344;2024-03-02T09:17:42;5.25;;;3.30;;
37971;SDS011;23794;48.234;8.344;2024-03-02T09:20:09;5.22;;;3.60;;
37971;SDS011;23794;48.234;8.344;2024-03-02T09:22:36;4.63;;;3.17;;
37971;SDS011;23794;48.234;8.344;2024-03-02T09:25:02;4.13;;;3.33;;
37971;SDS011;23794;48.234;8.344;2024-03-02T09:27:29;4.25;;;2.85;;
37971;SDS011;23794;48.234;8.344;2024-03-02T09:29:56;3.60;;;2.70;;
37971;SDS011;23794;48.234;8.344;2024-03-02T09:32:22;5.50;;;2.60;;
37971;SDS011;23794;48.234;8.344;2024-03-02T09:34:49;3.28;;;2.60;;
37971;SDS011;23794;48.234;8.344;2024-03-02T09:37:16;4.60;;;2.42;;
37971;SDS011;23794;48.234;8.344;2024-03-02T09:39:43;4.55;;;2.75;;
37971;SDS011;23794;48.234;8.344;2024-03-02T09:42:11;4.47;;;3.03;;
37971;SDS011;23794;48.234;8.344;2024-03-02T09:44:39;4.10;;;2.20;;
37971;SDS011;23794;48.234;8.344;2024-03-02T09:47:06;3.50;;;2.33;;
37971;SDS011;23794;48.234;8.344;2024-03-02T09:49:34;4.82;;;2.35;;
37971;SDS011;23794;48.234;8.344;2024-03-02T09:52:03;3.40;;;2.00;;
37971;SDS011;23794;48.234;8.344;2024-03-02T09:54:31;3.38;;;2.70;;
37971;SDS011;23794;48.234;8.344;2024-03-02T09:56:58;4.20;;;2.33;;
37971;SDS011;23794;48.234;8.344;2024-03-02T09:59:25;6.82;;;2.78;;
37971;SDS011;23794;48.234;8.344;2024-03-02T10:01:55;7.60;;;3.08;;
37971;SDS011;23794;48.234;8.344;2024-03-02T10:04:28;4.07;;;3.08;;
37971;SDS011;23794;48.234;8.344;2024-03-02T10:07:11;4.40;;;3.00;;
37971;SDS011;23794;48.234;8.344;2024-03-02T10:09:43;4.65;;;2.65;;
37971;SDS011;23794;48.234;8.344;2024-03-02T10:14:42;3.83;;;2.53;;
37971;SDS011;23794;48.234;8.344;2024-03-02T10:17:10;5.25;;;3.25;;
37971;SDS011;23794;48.234;8.344;2024-03-02T10:19:37;5.20;;;2.65;;
37971;SDS011;23794;48.234;8.344;2024-03-02T10:22:06;4.10;;;2.90;;
37971;SDS011;23794;48.234;8.344;2024-03-02T10:24:35;3.70;;;2.58;;
37971;SDS011;23794;48.234;8.344;2024-03-02T10:27:31;4.05;;;2.85;;
37971;SDS011;23794;48.234;8.344;2024-03-02T10:30:01;3.25;;;2.47;;
37971;SDS011;23794;48.234;8.344;2024-03-02T10:32:29;3.72;;;2.67;;
37971;SDS011;23794;48.234;8.344;2024-03-02T10:34:56;4.40;;;2.80;;
37971;SDS011;23794;48.234;8.344;2024-03-02T10:37:22;3.75;;;2.65;;
37971;SDS011;23794;48.234;8.344;2024-03-02T10:39:51;4.05;;;2.30;;
37971;SDS011;23794;48.234;8.344;2024-03-02T10:42:18;2.92;;;2.03;;
37971;SDS011;23794;48.234;8.344;2024-03-02T10:44:45;4.13;;;2.45;;
37971;SDS011;23794;48.234;8.344;2024-03-02T10:47:13;2.75;;;2.10;;
37971;SDS011;23794;48.234;8.344;2024-03-02T10:49:42;2.42;;;1.83;;
37971;SDS011;23794;48.234;8.344;2024-03-02T10:52:10;3.45;;;1.90;;
37971;SDS011;23794;48.234;8.344;2024-03-02T10:54:36;2.50;;;1.90;;
37971;SDS011;23794;48.234;8.344;2024-03-02T10:57:06;3.15;;;2.08;;
37971;SDS011;23794;48.234;8.344;2024-03-02T10:59:36;2.65;;;1.92;;
37971;SDS011;23794;48.234;8.344;2024-03-02T11:02:10;2.65;;;1.80;;
37971;SDS011;23794;48.234;8.344;2024-03-02T11:04:38;3.08;;;1.83;;
37971;SDS011;23794;48.234;8.344;2024-03-02T11:07:07;3.50;;;2.22;;
37971;SDS011;23794;48.234;8.344;2024-03-02T11:09:45;5.30;;;2.72;;
37971;SDS011;23794;48.234;8.344;2024-03-02T11:12:31;3.22;;;1.83;;
37971;SDS011;23794;48.234;8.344;2024-03-02T11:15:05;3.45;;;2.53;;
37971;SDS011;23794;48.234;8.344;2024-03-02T11:17:37;3.28;;;2.33;;
37971;SDS011;23794;48.234;8.344;2024-03-02T11:20:08;2.70;;;2.05;;
37971;SDS011;23794;48.234;8.344;2024-03-02T11:22:35;3.40;;;2.10;;
37971;SDS011;23794;48.234;8.344;2024-03-02T11:25:03;3.40;;;2.17;;
37971;SDS011;23794;48.234;8.344;2024-03-02T11:33:03;2.88;;;1.90;;
37971;SDS011;23794;48.234;8.344;2024-03-02T11:35:35;2.92;;;2.22;;
37971;SDS011;23794;48.234;8.344;2024-03-02T11:38:03;3.13;;;2.13;;
37971;SDS011;23794;48.234;8.344;2024-03-02T11:40:30;2.55;;;1.92;;
37971;SDS011;23794;48.234;8.344;2024-03-02T11:42:59;2.75;;;2.03;;
37971;SDS011;23794;48.234;8.344;2024-03-02T11:45:26;2.30;;;1.65;;
37971;SDS011;23794;48.234;8.344;2024-03-02T11:47:54;3.17;;;1.73;;
37971;SDS011;23794;48.234;8.344;2024-03-02T11:50:30;2.63;;;1.90;;
37971;SDS011;23794;48.234;8.344;2024-03-02T11:53:01;2.88;;;1.92;;
37971;SDS011;23794;48.234;8.344;2024-03-02T11:55:29;3.38;;;2.00;;
37971;SDS011;23794;48.234;8.344;2024-03-02T11:57:56;2.60;;;1.58;;
37971;SDS011;23794;48.234;8.344;2024-03-02T12:00:25;2.63;;;1.77;;
37971;SDS011;23794;48.234;8.344;2024-03-02T12:03:02;2.30;;;1.70;;
37971;SDS011;23794;48.234;8.344;2024-03-02T12:05:32;3.08;;;1.70;;
37971;SDS011;23794;48.234;8.344;2024-03-02T12:08:05;3.03;;;2.20;;
37971;SDS011;23794;48.234;8.344;2024-03-02T12:10:33;4.10;;;2.28;;
37971;SDS011;23794;48.234;8.344;2024-03-02T12:13:01;2.13;;;1.48;;
37971;SDS011;23794;48.234;8.344;2024-03-02T12:15:31;1.80;;;1.35;;
37971;SDS011;23794;48.234;8.344;2024-03-02T12:18:00;2.42;;;1.67;;
37971;SDS011;23794;48.234;8.344;2024-03-02T12:20:29;2.58;;;1.77;;
37971;SDS011;23794;48.234;8.344;2024-03-02T12:23:00;3.28;;;1.40;;
37971;SDS011;23794;48.234;8.344;2024-03-02T12:25:28;3.00;;;1.85;;
37971;SDS011;23794;48.234;8.344;2024-03-02T12:27:58;2.55;;;2.10;;
37971;SDS011;23794;48.234;8.344;2024-03-02T12:30:27;1.90;;;1.48;;
37971;SDS011;23794;48.234;8.344;2024-03-02T12:32:57;3.08;;;1.70;;
37971;SDS011;23794;48.234;8.344;2024-03-02T12:35:24;3.80;;;1.85;;
37971;SDS011;23794;48.234;8.344;2024-03-02T12:37:52;2.13;;;1.48;;
37971;SDS011;23794;48.234;8.344;2024-03-02T12:40:20;2.67;;;1.50;;
37971;SDS011;23794;48.234;8.344;2024-03-02T12:42:49;2.42;;;1.67;;
37971;SDS011;23794;48.234;8.344;2024-03-02T12:45:17;2.78;;;1.60;;
37971;SDS011;23794;48.234;8.344;2024-03-02T12:47:51;3.47;;;2.22;;
37971;SDS011;23794;48.234;8.344;2024-03-02T12:50:18;2.00;;;1.35;;
37971;SDS011;23794;48.234;8.344;2024-03-02T12:52:55;2.40;;;1.63;;
37971;SDS011;23794;48.234;8.344;2024-03-02T12:55:22;2.08;;;1.67;;
37971;SDS011;23794;48.234;8.344;2024-03-02T12:57:53;1.85;;;1.55;;
37971;SDS011;23794;48.234;8.344;2024-03-02T13:00:21;2.40;;;1.40;;
37971;SDS011;23794;48.234;8.344;2024-03-02T13:02:49;1.90;;;1.60;;
37971;SDS011;23794;48.234;8.344;2024-03-02T13:05:18;3.00;;;1.80;;
37971;SDS011;23794;48.234;8.344;2024-03-02T13:07:46;1.92;;;1.30;;
37971;SDS011;23794;48.234;8.344;2024-03-02T13:10:14;1.80;;;1.52;;
37971;SDS011;23794;48.234;8.344;2024-03-02T13:12:41;2.13;;;1.58;;
37971;SDS011;23794;48.234;8.344;2024-03-02T13:15:08;3.65;;;1.63;;
37971;SDS011;23794;48.234;8.344;2024-03-02T13:17:38;3.60;;;1.95;;
37971;SDS011;23794;48.234;8.344;2024-03-02T13:20:06;3.53;;;2.05;;
37971;SDS011;23794;48.234;8.344;2024-03-02T13:25:04;3.85;;;2.00;;
37971;SDS011;23794;48.234;8.344;2024-03-02T13:27:33;1.77;;;1.20;;
37971;SDS011;23794;48.234;8.344;2024-03-02T13:30:01;3.30;;;1.48;;
37971;SDS011;23794;48.234;8.344;2024-03-02T13:32:29;1.95;;;1.40;;
37971;SDS011;23794;48.234;8.344;2024-03-02T13:34:56;2.65;;;1.55;;
37971;SDS011;23794;48.234;8.344;2024-03-02T13:37:23;1.83;;;1.45;;
37971;SDS011;23794;48.234;8.344;2024-03-02T13:39:50;1.52;;;1.17;;
37971;SDS011;23794;48.234;8.344;2024-03-02T13:42:17;2.22;;;1.35;;
37971;SDS011;23794;48.234;8.344;2024-03-02T13:44:44;3.58;;;1.88;;
37971;SDS011;23794;48.234;8.344;2024-03-02T13:47:16;2.90;;;1.80;;
37971;SDS011;23794;48.234;8.344;2024-03-02T13:49:43;2.53;;;1.42;;
37971;SDS011;23794;48.234;8.344;2024-03-02T13:52:12;2.28;;;1.23;;
37971;SDS011;23794;48.234;8.344;2024-03-02T13:54:44;1.80;;;1.40;;
37971;SDS011;23794;48.234;8.344;2024-03-02T13:57:12;1.98;;;1.05;;
37971;SDS011;23794;48.234;8.344;2024-03-02T13:59:39;2.53;;;1.73;;
37971;SDS011;23794;48.234;8.344;2024-03-02T14:02:07;2.20;;;1.38;;
37971;SDS011;23794;48.234;8.344;2024-03-02T14:04:35;2.47;;;1.25;;
37971;SDS011;23794;48.234;8.344;2024-03-02T14:07:03;3.03;;;1.50;;
37971;SDS011;23794;48.234;8.344;2024-03-02T14:09:30;3.88;;;2.08;;
37971;SDS011;23794;48.234;8.344;2024-03-02T14:11:57;6.68;;;2.08;;
37971;SDS011;23794;48.234;8.344;2024-03-02T14:14:23;3.53;;;1.63;;
37971;SDS011;23794;48.234;8.344;2024-03-02T14:16:50;1.85;;;1.30;;
37971;SDS011;23794;48.234;8.344;2024-03-02T14:19:17;2.58;;;1.63;;
37971;SDS011;23794;48.234;8.344;2024-03-02T14:21:44;2.90;;;1.63;;
37971;SDS011;23794;48.234;8.344;2024-03-02T14:24:12;2.28;;;1.33;;
37971;SDS011;23794;48.234;8.344;2024-03-02T14:26:39;1.70;;;1.25;;
37971;SDS011;23794;48.234;8.344;2024-03-02T14:29:07;2.97;;;1.08;;
37971;SDS011;23794;48.234;8.344;2024-03-02T14:31:34;7.93;;;1.70;;
37971;SDS011;23794;48.234;8.344;2024-03-02T14:34:01;3.30;;;1.30;;
37971;SDS011;23794;48.234;8.344;2024-03-02T14:36:27;1.48;;;0.93;;
37971;SDS011;23794;48.234;8.344;2024-03-02T14:38:55;3.28;;;1.20;;
37971;SDS011;23794;48.234;8.344;2024-03-02T14:41:22;2.35;;;1.33;;
37971;SDS011;23794;48.234;8.344;2024-03-02T14:43:51;3.90;;;1.02;;
37971;SDS011;23794;48.234;8.344;2024-03-02T14:46:18;1.98;;;1.00;;
37971;SDS011;23794;48.234;8.344;2024-03-02T14:48:45;1.60;;;0.90;;
37971;SDS011;23794;48.234;8.344;2024-03-02T14:51:13;5.60;;;1.17;;
37971;SDS011;23794;48.234;8.344;2024-03-02T14:53:41;1.52;;;0.93;;
37971;SDS011;23794;48.234;8.344;2024-03-02T14:56:08;2.20;;;1.10;;
37971;SDS011;23794;48.234;8.344;2024-03-02T14:58:35;4.68;;;1.38;;
37971;SDS011;23794;48.234;8.344;2024-03-02T15:01:04;8.43;;;1.45;;
37971;SDS011;23794;48.234;8.344;2024-03-02T15:03:32;2.42;;;1.08;;
37971;SDS011;23794;48.234;8.344;2024-03-02T15:06:00;3.85;;;1.05;;
37971;SDS011;23794;48.234;8.344;2024-03-02T15:08:29;2.58;;;0.80;;
37971;SDS011;23794;48.234;8.344;2024-03-02T15:10:58;0.90;;;0.63;;